Terminal Aerodrome Forecast
Issued by NWS North Platte, NE

Home | Current Version | Previous Version | Text Only | Print | Product List | Glossary Off
Versions: 1 2 3 4 5 6 7 8 9 10 11 12 13 14 15 16 17 18 19 20

000
FTUS43 KLBF 291300 AAA
TAFVTN
TAF AMD
KVTN 291358Z 2914/3012 05005KT 1/4SM FG OVC002
     FM291600 08008KT 2SM BR OVC003
      TEMPO 2916/2917 5SM BR OVC007
     FM291700 12010G17KT P6SM OVC025
     FM292000 12015G22KT P6SM VCSH SCT025 OVC050
     FM300300 12020G28KT 3SM -SHRA BR BKN015
     FM300900 15020G28KT P6SM OVC015=

USA.gov is the U.S. government's official web portal to all federal, state and local government web resources and services.